CDT,Max TemperatureF,Mean TemperatureF,Min TemperatureF,Max Dew PointF,MeanDew PointF,Min DewpointF,Max Humidity, Mean Humidity, Min Humidity, Max Sea Level PressureIn, Mean Sea Level PressureIn, Min Sea Level PressureIn, Max VisibilityMiles, Mean VisibilityMiles, Min VisibilityMiles, Max Wind SpeedMPH, Mean Wind SpeedMPH, Max Gust SpeedMPH,PrecipitationIn, CloudCover, Events, WindDirDegrees
2013-3-1,28,24,19,20,17,12,88,76,63,30.43,30.35,30.28,10,10,8,21,11,25,T,7,Snow,2
2013-3-2,30,17,4,22,13,1,96,80,63,30.42,30.31,30.12,10,9,2,12,5,,0.00,3,,148
2013-3-3,38,30,21,29,24,19,92,81,69,30.09,29.90,29.75,10,9,6,23,13,26,0.00,3,,131
2013-3-4,36,33,29,29,26,18,85,72,58,30.04,29.86,29.71,10,10,10,25,10,31,T,7,,11
2013-3-5,29,26,22,23,19,15,86,75,65,30.45,30.18,30.00,10,7,1,41,23,48,T,8,Snow,320
2013-3-6,35,28,20,23,19,15,88,75,52,30.49,30.40,30.30,10,9,3,17,7,21,0.00,5,,92
2013-3-7,47,34,20,30,24,17,89,73,50,30.32,30.22,30.13,10,10,8,22,14,28,0.00,0,,133
2013-3-8,53,39,25,38,31,23,93,75,49,30.23,30.09,29.93,10,9,3,20,10,25,0.21,3,Rain,124
2013-3-9,49,41,32,45,38,30,100,92,81,29.91,29.73,29.61,10,4,1,24,13,31,0.71,8,Rain-Snow,103
2013-3-10,33,28,22,30,24,18,100,91,81,30.01,29.92,29.80,9,2,0,35,22,43,0.26,8,Fog-Snow,348
2013-3-11,30,22,13,19,16,12,91,75,58,30.04,29.96,29.90,10,10,9,22,10,28,T,4,Snow,306
2013-3-12,32,22,12,23,20,12,96,82,68,30.35,30.18,30.00,10,7,2,33,18,40,T,6,Snow,315
2013-3-13,30,21,11,21,16,9,92,81,69,30.48,30.39,30.25,10,10,10,14,7,17,T,1,,179
2013-3-14,57,41,25,44,31,20,96,79,61,30.23,30.12,30.06,10,10,6,16,7,18,0.00,1,,104
2013-3-15,50,41,32,41,36,31,100,86,71,30.03,29.86,29.78,10,7,4,25,9,30,0.00,3,,43
2013-3-16,35,30,25,32,23,19,96,79,61,30.25,30.12,29.93,10,10,4,24,14,33,0.00,7,,4
2013-3-17,40,30,20,32,23,13,84,74,64,30.23,29.98,29.69,10,9,2,31,14,39,0.03,6,Snow,121
2013-3-18,36,28,20,34,20,11,96,73,49,30.09,29.85,29.70,10,9,5,29,20,44,T,5,Rain-Snow,301
2013-3-19,42,29,16,23,14,6,80,63,45,30.40,30.23,30.12,10,10,10,28,11,35,0.00,2,,332
2013-3-20,32,22,12,12,8,5,73,55,36,30.45,30.35,30.19,10,10,10,25,14,31,0.00,0,,335
2013-3-21,35,25,14,20,13,7,81,61,41,30.17,30.07,29.98,10,10,10,13,9,16,0.00,4,,101
2013-3-22,35,28,20,24,19,16,84,68,51,30.10,30.06,30.03,10,10,10,12,6,15,0.00,8,,114
2013-3-23,33,31,28,29,26,20,85,72,59,30.18,30.13,30.08,10,6,1,20,7,25,0.03,8,Snow,36
2013-3-24,29,26,23,25,21,17,93,78,54,30.17,30.10,30.03,10,7,2,25,17,30,0.02,8,Snow,332
2013-3-25,31,27,23,25,20,18,93,78,58,30.39,30.22,30.10,10,6,2,25,17,32,0.02,8,Snow,333
2013-3-26,40,29,18,24,18,13,78,63,48,30.41,30.35,30.27,10,10,10,14,6,16,0.00,3,,281
2013-3-27,52,37,22,28,24,19,92,65,38,30.32,30.27,30.21,10,10,10,17,9,23,0.00,1,,126
2013-3-28,55,40,24,34,29,23,92,69,45,30.29,30.25,30.20,10,10,7,14,7,16,0.00,3,,130
2013-3-29,67,48,28,39,33,27,92,61,29,30.25,30.16,30.03,10,10,8,22,9,25,0.02,1,,141
2013-3-30,63,52,40,47,44,38,93,66,39,30.05,29.97,29.91,10,9,5,30,9,37,0.32,5,Rain-Thunderstorm,293
2013-3-31,52,39,25,38,31,23,100,69,38,30.21,30.04,29.96,10,7,1,28,14,32,0.04,3,Rain-Snow,331